Aduana, Mexico

2:09 PM EDT on September 20, 2017 (GMT -0400)
Hotel Grand Velas | | Change Station

Elev 0 ft 20.67 °N, 87.02 °W | Updated 58 seconds ago

Mostly Cloudy
Mostly Cloudy
87.1 °F
Feels Like 101 °F
N
8.0
Wind Variable Wind from ESE
Gusts 11.0 mph

Today
High -- | Low -- °F
--% Chance of Precip.
Yesterday
High -- | Low -- °F
Precip. -- in
Pressure 29.93 in
Visibility 8.0 miles
Clouds Scattered Clouds 1500 ft
Heat Index 101 °F
Dew Point 79 °F
Humidity 76%
Rainfall 0.01 in
Snow Depth Not available.
7:35 AM 7:45 PM
New Moon, 0% visible
METAR MMCZ 201749Z 13006KT 8SM SCT015TCU 32/24 A2991 RMK SLP133 57012 951 8/200 SC
Pressure 29.93 in
Visibility 8.0 miles
Clouds Scattered Clouds 1500 ft
Heat Index 101 °F
Dew Point 79 °F
Humidity 76%
Rainfall 0.01 in
Snow Depth Not available.
7:35 AM 7:45 PM
New Moon, 0% visible
METAR MMCZ 201749Z 13006KT 8SM SCT015TCU 32/24 A2991 RMK SLP133 57012 951 8/200 SC

Get Severe Weather Alerts

Thanks for signing up!

Be on the lookout for a verification email in your inbox.

You'll start receiving the daily forecast at 6 AM.

×

10-Day Weather Forecast

No radar image for this location.
×

Almanac

Astronomy

Sep. 20, 2017 Rise Set
Actual Time
Civil Twilight
Nautical Twilight
Astronomical Twilight
Moon
Length of Visible Light
Length of Day
Tomorrow will be .
, % of the Moon is Illuminated

Today's Extremes

Country Highs Country Lows

Community

WunderPhotos

Category 6

Welcome to Category 6. This is the collective home for Weather Underground's featured writeups by Dr. Jeff Masters (right), Bob Henson (left), Chris Burt, and other regular contributors.

Nearby

Air Quality

  Air Quality AQ Index Pollutant
Not available.

Snow Depth

Station Depth Elevation

Earthquake Activity

City Distance Mag. Time & Date
Minimum magnitude displayed is 2.5.

Coastal Water Temperatures

Place Temperature

Stations

Nearby Weather Stations

Station Location Temp. Windchill Dew Point Humidity Wind Precip. Elev Updated Type